Fridtjof Nansen — DGLS — position and weather

sailwx.info

Track history (hours):
 
Tides and Currents Weather Stations Pressure Air Temp Water Temp Dewpoint Dewpoint Depression Visibility Wind Speed Wind Dir Waves Ship Positions

Fridtjof Nansen (Germany)

Last reported at 2019-Oct-13 02:32 UTC. Time now 2019-Oct-17 17:44 UTC.
Position N 54°03' E 008°17'.

Length 48 m; draft 2.8 m.

Type: Sailing vessel. MMSI: 211364430.

Date/timePositionNaut miles runAvg speedWind from/ knotsBaromVisibWave heightAir tempDewpointWater temp
2019-Oct-13 02:32N 54°03' E 008°17'0 4.8
2019-Oct-13 02:30N 54°03' E 008°17'2 4.4
2019-Oct-13 02:00N 54°01' E 008°18'2 5.0
2019-Oct-13 01:31N 53°60' E 008°23'3 5.4
2019-Oct-13 01:00N 53°59' E 008°27'2 4.6
2019-Oct-13 00:30N 53°58' E 008°30'23 0.7
2019-Oct-11 15:56N 53°54' E 009°09'0 0.0
2019-Oct-11 15:30N 53°54' E 009°09'0 0.0
2019-Oct-11 14:59N 53°54' E 009°09'0 0.0
2019-Oct-11 14:30N 53°54' E 009°09'1 2.0
2019-Oct-11 14:00N 53°54' E 009°10'2 3.4
2019-Oct-11 13:30N 53°56' E 009°12'2 3.5
2019-Oct-11 13:00N 53°57' E 009°14'2 3.5
2019-Oct-11 12:30N 53°58' E 009°16'2 3.4
2019-Oct-11 12:00N 53°60' E 009°17'2 4.1
2019-Oct-11 11:30N 54°02' E 009°18'8 4.0
2019-Oct-11 09:35N 54°09' E 009°22'0 4.6
2019-Oct-11 09:28N 54°09' E 009°23'2 4.5
2019-Oct-11 09:00N 54°10' E 009°26'2 4.6
2019-Oct-11 08:30N 54°11' E 009°30'2 4.2
2019-Oct-11 08:00N 54°12' E 009°33'2 4.5
2019-Oct-11 07:30N 54°14' E 009°36'2 4.8
2019-Oct-11 07:00N 54°16' E 009°37'2 4.3
2019-Oct-11 06:30N 54°17' E 009°40'1 1.2
2019-Oct-11 06:00N 54°18' E 009°41'0 0.0
2019-Oct-11 05:30N 54°18' E 009°41'0 0.0
2019-Oct-11 05:00N 54°18' E 009°41'0 0.0
2019-Oct-11 04:30N 54°18' E 009°41'0 0.0
2019-Oct-11 04:00N 54°18' E 009°41'0 0.0
2019-Oct-11 03:30N 54°18' E 009°41'0 0.0
2019-Oct-11 03:00N 54°18' E 009°41'0 0.0
2019-Oct-11 02:27N 54°18' E 009°41'0 0.0
2019-Oct-11 02:00N 54°18' E 009°41'0 0.0
2019-Oct-11 01:29N 54°18' E 009°41'0 0.0
2019-Oct-11 00:59N 54°18' E 009°41'0 0.0
2019-Oct-11 00:29N 54°18' E 009°41'0 0.0
2019-Oct-10 23:59N 54°18' E 009°41'0 0.0
2019-Oct-10 23:29N 54°18' E 009°41'0 0.0
2019-Oct-10 22:59N 54°18' E 009°41'0 0.0
2019-Oct-10 22:29N 54°18' E 009°41'0 0.0
2019-Oct-10 21:59N 54°18' E 009°41'0 0.0
2019-Oct-10 21:23N 54°18' E 009°41'0 0.0
2019-Oct-10 20:59N 54°18' E 009°41'0 0.0
2019-Oct-10 20:29N 54°18' E 009°41'0 0.0
2019-Oct-10 19:59N 54°18' E 009°41'0 0.0
2019-Oct-10 19:29N 54°18' E 009°41'0 0.0
2019-Oct-10 18:59N 54°18' E 009°41'0 0.0
2019-Oct-10 18:29N 54°18' E 009°41'0 0.0
2019-Oct-10 17:59N 54°18' E 009°41'0 0.0
2019-Oct-10 17:29N 54°18' E 009°41'0 0.0
2019-Oct-10 16:50N 54°18' E 009°41'0 0.0
2019-Oct-10 16:29N 54°18' E 009°41'0 0.0
2019-Oct-10 15:59N 54°18' E 009°41'0 0.0
2019-Oct-10 15:26N 54°18' E 009°41'0 0.0
2019-Oct-10 14:56N 54°18' E 009°41'0 0.0
2019-Oct-10 14:29N 54°18' E 009°41'0 0.0
2019-Oct-10 13:59N 54°18' E 009°41'0 0.0
2019-Oct-10 13:26N 54°18' E 009°41'0 0.0
2019-Oct-10 12:59N 54°18' E 009°41'0 0.0
2019-Oct-10 12:29N 54°18' E 009°41'0 0.0
2019-Oct-10 11:59N 54°18' E 009°41'0 0.0
2019-Oct-10 11:29N 54°18' E 009°41'0 0.0
2019-Oct-10 10:56N 54°18' E 009°41'0 0.0
2019-Oct-10 10:26N 54°18' E 009°41'0 0.0
2019-Oct-10 09:59N 54°18' E 009°41'0 0.0
2019-Oct-10 09:29N 54°18' E 009°41'0 0.0
2019-Oct-10 08:59N 54°18' E 009°41'0 0.0
2019-Oct-10 08:26N 54°18' E 009°41'0 0.0
2019-Oct-10 07:59N 54°18' E 009°41'0 0.0
2019-Oct-10 07:29N 54°18' E 009°41'0 0.0
2019-Oct-10 06:59N 54°18' E 009°41'0 0.0
2019-Oct-10 06:23N 54°18' E 009°41'0 0.0
2019-Oct-10 05:59N 54°18' E 009°41'0 0.0
2019-Oct-10 05:29N 54°18' E 009°41'0 0.0
2019-Oct-10 04:59N 54°18' E 009°41'0 0.0
2019-Oct-10 04:29N 54°18' E 009°41'0 0.0
2019-Oct-10 03:59N 54°18' E 009°41'0 0.0
2019-Oct-10 03:29N 54°18' E 009°41'0 0.0
2019-Oct-10 02:59N 54°18' E 009°41'0 0.0
2019-Oct-10 02:29N 54°18' E 009°41'0 0.0
2019-Oct-10 01:59N 54°18' E 009°41'0 0.0
2019-Oct-10 01:29N 54°18' E 009°41'0 0.0
2019-Oct-10 00:59N 54°18' E 009°41'0 0.0
2019-Oct-10 00:29N 54°18' E 009°41'0 0.0
2019-Oct-09 23:59N 54°18' E 009°41'0 0.0
2019-Oct-09 23:26N 54°18' E 009°41'0 0.0
2019-Oct-09 22:59N 54°18' E 009°41'0 0.0
2019-Oct-09 22:29N 54°18' E 009°41'0 0.0
2019-Oct-09 21:59N 54°18' E 009°41'0 0.0
2019-Oct-09 21:29N 54°18' E 009°41'0 0.0
2019-Oct-09 20:59N 54°18' E 009°41'0 0.0
2019-Oct-09 20:29N 54°18' E 009°41'0 0.0
2019-Oct-09 19:53N 54°18' E 009°41'0 0.0
2019-Oct-09 19:29N 54°18' E 009°41'0 0.0
2019-Oct-09 18:59N 54°18' E 009°41'0 0.0
2019-Oct-09 18:29N 54°18' E 009°41'0 0.0
2019-Oct-09 17:59N 54°18' E 009°41'0 0.0
2019-Oct-09 17:29N 54°18' E 009°41'0 0.0
2019-Oct-09 16:59N 54°18' E 009°41'0 0.0
2019-Oct-09 16:28N 54°18' E 009°41'0 0.0
2019-Oct-09 15:58N 54°18' E 009°41'0 0.0
2019-Oct-09 15:28N 54°18' E 009°41'0 0.0
2019-Oct-09 14:58N 54°18' E 009°41'0 0.0
2019-Oct-09 14:28N 54°18' E 009°41'0 0.0
2019-Oct-09 13:58N 54°18' E 009°41'0 0.0
2019-Oct-09 13:28N 54°18' E 009°41'0 0.0
2019-Oct-09 12:58N 54°18' E 009°41'0 0.0
2019-Oct-09 12:28N 54°18' E 009°41'0 0.0
2019-Oct-09 11:58N 54°18' E 009°41'0 0.0
2019-Oct-09 11:28N 54°18' E 009°41'0 0.0
2019-Oct-09 10:58N 54°18' E 009°41'0 0.0
2019-Oct-09 10:28N 54°18' E 009°41'0 0.0
2019-Oct-09 09:55N 54°18' E 009°41'0 0.0
2019-Oct-09 09:28N 54°18' E 009°41'0 0.0
2019-Oct-09 08:58N 54°18' E 009°41'0 0.0
2019-Oct-09 08:28N 54°18' E 009°41'0 0.0
2019-Oct-09 07:58N 54°18' E 009°41'0 0.0
2019-Oct-09 07:28N 54°18' E 009°41'0 0.0
2019-Oct-09 06:58N 54°18' E 009°41'0 0.0
2019-Oct-09 06:28N 54°18' E 009°41'0 0.0
2019-Oct-09 05:58N 54°18' E 009°41'0 0.0
2019-Oct-09 05:28N 54°18' E 009°41'0 0.0
2019-Oct-09 04:58N 54°18' E 009°41'0 0.0
2019-Oct-09 04:28N 54°18' E 009°41'0 0.0
2019-Oct-09 03:58N 54°18' E 009°41'0 0.0
2019-Oct-09 03:25N 54°18' E 009°41'0 0.0
2019-Oct-09 02:58N 54°18' E 009°41'0 0.0
2019-Oct-09 02:28N 54°18' E 009°41'0 0.0
2019-Oct-09 01:58N 54°18' E 009°41'0 0.0
2019-Oct-09 01:28N 54°18' E 009°41'0 0.0
2019-Oct-09 00:58N 54°18' E 009°41'0 0.0
2019-Oct-09 00:28N 54°18' E 009°41'0 0.0
2019-Oct-08 23:58N 54°18' E 009°41'0 0.0
2019-Oct-08 23:28N 54°18' E 009°41'0 0.0
2019-Oct-08 22:55N 54°18' E 009°41'0 0.0
2019-Oct-08 22:28N 54°18' E 009°41'0 0.0
2019-Oct-08 21:58N 54°18' E 009°41'0 0.0
2019-Oct-08 21:28N 54°18' E 009°41'0 0.0
2019-Oct-08 20:58N 54°18' E 009°41'0 0.0
2019-Oct-08 20:28N 54°18' E 009°41'0 0.0
2019-Oct-08 19:58N 54°18' E 009°41'0 0.0
2019-Oct-08 19:28N 54°18' E 009°41'0 0.0
2019-Oct-08 18:58N 54°18' E 009°41'0 0.0
2019-Oct-08 18:28N 54°18' E 009°41'0 0.0
2019-Oct-08 17:58N 54°18' E 009°41'0 0.0
2019-Oct-08 17:28N 54°18' E 009°41'0 0.0
2019-Oct-08 16:58N 54°18' E 009°41'0 0.0
2019-Oct-08 16:28N 54°18' E 009°41'0 0.0
2019-Oct-08 15:58N 54°18' E 009°41'0 0.0
2019-Oct-08 15:28N 54°18' E 009°41'0 0.0
2019-Oct-08 14:58N 54°18' E 009°41'0 0.0
2019-Oct-08 14:28N 54°18' E 009°41'0 0.0
2019-Oct-08 13:58N 54°18' E 009°41'0 0.0
2019-Oct-08 13:28N 54°18' E 009°41'0 0.0
2019-Oct-08 12:58N 54°18' E 009°41'0 0.0
2019-Oct-08 12:28N 54°18' E 009°41'0 0.0
2019-Oct-08 11:55N 54°18' E 009°41'0 0.0
2019-Oct-08 11:25N 54°18' E 009°41'0 0.0
2019-Oct-08 10:07N 54°18' E 009°41'0 0.0
2019-Oct-08 09:58N 54°18' E 009°41'0 0.0
2019-Oct-08 09:28N 54°18' E 009°41'0 0.0
2019-Oct-08 09:01N 54°18' E 009°41'0 0.0
2019-Oct-08 08:28N 54°18' E 009°41'0 0.0
2019-Oct-08 08:01N 54°18' E 009°41'0 0.0
2019-Oct-08 07:31N 54°18' E 009°41'0 0.0
2019-Oct-08 07:00N 54°18' E 009°41'0 0.0
2019-Oct-08 06:30N 54°18' E 009°41'0 0.0
2019-Oct-08 06:00N 54°18' E 009°41'0 0.0
2019-Oct-08 05:30N 54°18' E 009°41'0 0.0
2019-Oct-08 05:00N 54°18' E 009°41'0 0.0
2019-Oct-08 04:30N 54°18' E 009°41'0 0.0
2019-Oct-08 04:00N 54°18' E 009°41'0 0.0
2019-Oct-08 03:30N 54°18' E 009°41'0 0.0
2019-Oct-08 03:00N 54°18' E 009°41'0 0.0
2019-Oct-08 02:30N 54°18' E 009°41'0 0.0
2019-Oct-08 02:00N 54°18' E 009°41'0 0.0
2019-Oct-08 01:30N 54°18' E 009°41'0 0.0
2019-Oct-08 01:00N 54°18' E 009°41'0 0.0
2019-Oct-08 00:30N 54°18' E 009°41'0 0.0
2019-Oct-07 23:57N 54°18' E 009°41'0 0.0
2019-Oct-07 23:30N 54°18' E 009°41'0 0.0
2019-Oct-07 23:00N 54°18' E 009°41'0 0.0
2019-Oct-07 22:30N 54°18' E 009°41'0 0.0
2019-Oct-07 21:57N 54°18' E 009°41'0 0.0
2019-Oct-07 21:30N 54°18' E 009°41'0 0.0
2019-Oct-07 21:00N 54°18' E 009°41'0 0.0
2019-Oct-07 20:30N 54°18' E 009°41'0 0.0
2019-Oct-07 19:57N 54°18' E 009°41'0 0.0
2019-Oct-07 19:30N 54°18' E 009°41'0 0.0
2019-Oct-07 18:57N 54°18' E 009°41'0 0.0
2019-Oct-07 18:30N 54°18' E 009°41'0 0.0
2019-Oct-07 18:00N 54°18' E 009°41'0 0.0
2019-Oct-07 17:27N 54°18' E 009°41'0 0.0
2019-Oct-07 16:57N 54°18' E 009°41'0 0.0
2019-Oct-07 16:30N 54°18' E 009°41'0 0.0
2019-Oct-07 15:57N 54°18' E 009°41'0 0.0
2019-Oct-07 15:27N 54°18' E 009°41'0 0.0
2019-Oct-07 14:54N 54°18' E 009°41'0 0.0
2019-Oct-07 14:30N 54°18' E 009°41'0 0.0
2019-Oct-07 13:57N 54°18' E 009°41'0 0.0
2019-Oct-07 13:30N 54°18' E 009°41'0 0.0
2019-Oct-07 13:00N 54°18' E 009°41'0 0.0
2019-Oct-07 12:27N 54°18' E 009°41'0 0.0
2019-Oct-07 11:51N 54°18' E 009°41'0 0.0
2019-Oct-07 11:27N 54°18' E 009°41'0 0.0
2019-Oct-07 10:27N 54°18' E 009°41'0 0.0
2019-Oct-07 09:18N 54°18' E 009°41'0 0.0
2019-Oct-07 08:33N 54°18' E 009°41'0 0.1
2019-Oct-07 08:30N 54°18' E 009°41'0 0.0
2019-Oct-07 07:57N 54°18' E 009°41'0 0.0
2019-Oct-07 07:30N 54°18' E 009°41'0 0.0
2019-Oct-07 07:00N 54°18' E 009°41'0 0.0
2019-Oct-07 06:30N 54°18' E 009°41'0 0.0
2019-Oct-07 06:00N 54°18' E 009°41'0 0.0
2019-Oct-07 05:30N 54°18' E 009°41'0 0.0
2019-Oct-07 05:00N 54°18' E 009°41'0 0.0
2019-Oct-07 04:30N 54°18' E 009°41'0 0.0
2019-Oct-07 04:00N 54°18' E 009°41'0 0.0
2019-Oct-07 03:30N 54°18' E 009°41'0 0.0
2019-Oct-07 03:00N 54°18' E 009°41'0 0.0
2019-Oct-07 02:00N 54°18' E 009°41'0 0.0
2019-Oct-07 01:30N 54°18' E 009°41'0 0.0
2019-Oct-07 01:00N 54°18' E 009°41'0 0.0
2019-Oct-07 00:30N 54°18' E 009°41'0 0.0
2019-Oct-07 00:00N 54°18' E 009°41'0 0.0
2019-Oct-06 23:30N 54°18' E 009°41'0 0.0
2019-Oct-06 23:00N 54°18' E 009°41'0 0.0
2019-Oct-06 22:30N 54°18' E 009°41'0 0.0
2019-Oct-06 21:59N 54°18' E 009°41'0 0.0
2019-Oct-06 21:29N 54°18' E 009°41'0 0.0
2019-Oct-06 20:59N 54°18' E 009°41'0 0.0
2019-Oct-06 20:29N 54°18' E 009°41'0 0.0
2019-Oct-06 19:56N 54°18' E 009°41'0 0.0
2019-Oct-06 19:29N 54°18' E 009°41'0 0.0
2019-Oct-06 18:59N 54°18' E 009°41'0 0.0
2019-Oct-06 18:29N 54°18' E 009°41'0 0.0
2019-Oct-06 17:59N 54°18' E 009°41'0 0.0
2019-Oct-06 17:29N 54°18' E 009°41'0 0.0
2019-Oct-06 16:59N 54°18' E 009°41'0 0.0
2019-Oct-06 16:26N 54°18' E 009°41'0 0.0
2019-Oct-06 15:44N 54°18' E 009°41'0 0.0
2019-Oct-06 15:20N 54°18' E 009°41'0 0.0
2019-Oct-06 14:59N 54°18' E 009°41'0 0.0
2019-Oct-06 14:23N 54°18' E 009°41'0 0.0
2019-Oct-06 13:44N 54°18' E 009°41'0 0.0
2019-Oct-06 13:20N 54°18' E 009°41'0 0.0
2019-Oct-06 12:56N 54°18' E 009°41'0 0.0
2019-Oct-06 12:20N 54°18' E 009°41'0 0.0
2019-Oct-06 11:50N 54°18' E 009°41'0 0.0
2019-Oct-06 11:29N 54°18' E 009°41'0 0.0
2019-Oct-06 10:53N 54°18' E 009°41'0 0.0
2019-Oct-06 10:29N 54°18' E 009°41'0 0.0
2019-Oct-06 09:53N 54°18' E 009°41'0 0.0
2019-Oct-06 09:26N 54°18' E 009°41'0 0.0
2019-Oct-06 08:56N 54°18' E 009°41'0 0.0
2019-Oct-06 08:26N 54°18' E 009°41'0 0.0
2019-Oct-06 07:50N 54°18' E 009°41'0 0.0
2019-Oct-06 07:29N 54°18' E 009°41'0 0.0
2019-Oct-06 06:56N 54°18' E 009°41'0 0.0
2019-Oct-06 06:26N 54°18' E 009°41'0 0.0
2019-Oct-06 05:59N 54°18' E 009°41'0 0.0
2019-Oct-06 05:29N 54°18' E 009°41'0 0.0
2019-Oct-06 04:59N 54°18' E 009°41'0 0.0
2019-Oct-06 04:29N 54°18' E 009°41'0 0.0
2019-Oct-06 03:59N 54°18' E 009°41'0 0.0
2019-Oct-06 03:29N 54°18' E 009°41'0 0.0
2019-Oct-06 02:59N 54°18' E 009°41'0 0.0
2019-Oct-06 02:29N 54°18' E 009°41'0 0.0
2019-Oct-06 01:56N 54°18' E 009°41'0 0.0
2019-Oct-06 01:29N 54°18' E 009°41'0 0.0
2019-Oct-06 00:59N 54°18' E 009°41'0 0.0
2019-Oct-06 00:29N 54°18' E 009°41'0 0.0
2019-Oct-05 23:59N 54°18' E 009°41'0 0.0
2019-Oct-05 23:26N 54°18' E 009°41'0 0.0
2019-Oct-05 22:59N 54°18' E 009°41'0 0.0
2019-Oct-05 22:29N 54°18' E 009°41'0 0.0
2019-Oct-05 21:59N 54°18' E 009°41'0 0.0
2019-Oct-05 21:29N 54°18' E 009°41'0 0.0
2019-Oct-05 20:56N 54°18' E 009°41'0 0.0
2019-Oct-05 20:29N 54°18' E 009°41'0 0.0
2019-Oct-05 19:59N 54°18' E 009°41'0 0.0
2019-Oct-05 19:29N 54°18' E 009°41'0 0.0
2019-Oct-05 18:59N 54°18' E 009°41'0 0.0
2019-Oct-05 18:29N 54°18' E 009°41'0 0.0
2019-Oct-05 17:59N 54°18' E 009°41'0 0.0
2019-Oct-05 17:29N 54°18' E 009°41'0 0.0
2019-Oct-05 16:56N 54°18' E 009°41'0 0.0
2019-Oct-05 16:29N 54°18' E 009°41'0 0.0
2019-Oct-05 15:59N 54°18' E 009°41'0 0.0
2019-Oct-05 15:29N 54°18' E 009°41'0 0.0
2019-Oct-05 14:59N 54°18' E 009°41'0 0.0
2019-Oct-05 14:29N 54°18' E 009°41'0 0.0
2019-Oct-05 13:56N 54°18' E 009°41'0 0.0
2019-Oct-05 13:29N 54°18' E 009°41'0 0.0
2019-Oct-05 12:58N 54°18' E 009°41'0 0.0
2019-Oct-05 12:25N 54°18' E 009°41'0 0.0
2019-Oct-05 11:55N 54°18' E 009°41'0 0.0
2019-Oct-05 11:28N 54°18' E 009°41'0 0.0
2019-Oct-05 10:58N 54°18' E 009°41'0 0.0
2019-Oct-05 10:28N 54°18' E 009°41'0 0.0
2019-Oct-05 09:58N 54°18' E 009°41'0 0.0
2019-Oct-05 09:19N 54°18' E 009°41'0 0.0
2019-Oct-05 08:55N 54°18' E 009°41'0 0.0
2019-Oct-05 08:28N 54°18' E 009°41'0 0.0
2019-Oct-05 07:58N 54°18' E 009°41'0 0.0
2019-Oct-05 07:28N 54°18' E 009°41'0 0.0
2019-Oct-05 06:58N 54°18' E 009°41'0 0.0
2019-Oct-05 06:28N 54°18' E 009°41'0 0.0
2019-Oct-05 05:58N 54°18' E 009°41'0 0.0
2019-Oct-05 05:28N 54°18' E 009°41'0 0.0
2019-Oct-05 04:58N 54°18' E 009°41'0 0.0
2019-Oct-05 04:28N 54°18' E 009°41'0 0.0
2019-Oct-05 03:58N 54°18' E 009°41'0 0.0
2019-Oct-05 03:28N 54°18' E 009°41'0 0.0
2019-Oct-05 02:58N 54°18' E 009°41'0 0.0
2019-Oct-05 02:28N 54°18' E 009°41'0 0.0
2019-Oct-05 01:58N 54°18' E 009°41'0 0.0
2019-Oct-05 01:25N 54°18' E 009°41'0 0.0
2019-Oct-05 00:58N 54°18' E 009°41'0 0.0
2019-Oct-05 00:28N 54°18' E 009°41'0 0.0
2019-Oct-04 23:58N 54°18' E 009°41'0 0.0
2019-Oct-04 23:28N 54°18' E 009°41'0 0.0
2019-Oct-04 22:58N 54°18' E 009°41'0 0.0
2019-Oct-04 22:28N 54°18' E 009°41'0 0.0
2019-Oct-04 21:58N 54°18' E 009°41'0 0.0
2019-Oct-04 21:28N 54°18' E 009°41'0 0.0
2019-Oct-04 20:58N 54°18' E 009°41'0 0.0
2019-Oct-04 20:28N 54°18' E 009°41'0 0.0
2019-Oct-04 19:55N 54°18' E 009°41'0 0.0
2019-Oct-04 19:28N 54°18' E 009°41'0 0.0
2019-Oct-04 18:58N 54°18' E 009°41'0 0.0
2019-Oct-04 18:28N 54°18' E 009°41'0 0.0
2019-Oct-04 17:55N 54°18' E 009°41'0 0.0
2019-Oct-04 17:28N 54°18' E 009°41'0 0.0
2019-Oct-04 16:55N 54°18' E 009°41'0 0.0
2019-Oct-04 16:28N 54°18' E 009°41'0 0.0
2019-Oct-04 15:55N 54°18' E 009°41'0 0.0
2019-Oct-04 15:25N 54°18' E 009°41'0 0.0
2019-Oct-04 14:55N 54°18' E 009°41'0 0.0
2019-Oct-04 14:28N 54°18' E 009°41'0 0.0
2019-Oct-04 13:58N 54°18' E 009°41'0 0.0
2019-Oct-04 13:25N 54°18' E 009°41'0 0.0
2019-Oct-04 12:49N 54°18' E 009°41'0 0.0
2019-Oct-04 11:01N 54°18' E 009°41'0 0.0
2019-Oct-04 10:58N 54°18' E 009°41'0 0.0
2019-Oct-04 10:28N 54°18' E 009°41'0 0.0
2019-Oct-04 09:55N 54°18' E 009°41'0 0.0
2019-Oct-04 09:28N 54°18' E 009°41'0 0.0
2019-Oct-04 08:55N 54°18' E 009°41'0 0.0
2019-Oct-04 08:28N 54°18' E 009°41'0 0.0
2019-Oct-04 07:58N 54°18' E 009°41'0 0.0
2019-Oct-04 07:28N 54°18' E 009°41'0 0.0
2019-Oct-04 06:58N 54°18' E 009°41'0 0.0
2019-Oct-04 06:28N 54°18' E 009°41'0 0.0
2019-Oct-04 05:58N 54°18' E 009°41'0 0.0
2019-Oct-04 05:28N 54°18' E 009°41'0 0.0
2019-Oct-04 05:01N 54°18' E 009°41'0 0.0
2019-Oct-04 04:31N 54°18' E 009°41'0 0.0
2019-Oct-04 04:00N 54°18' E 009°41'0 0.0
2019-Oct-04 03:30N 54°18' E 009°41'0 0.0
2019-Oct-04 03:00N 54°18' E 009°41'0 0.0
2019-Oct-04 02:30N 54°18' E 009°41'0 0.0
2019-Oct-04 02:00N 54°18' E 009°41'0 0.0
2019-Oct-04 01:30N 54°18' E 009°41'0 0.0
2019-Oct-04 01:00N 54°18' E 009°41'0 0.0
2019-Oct-04 00:30N 54°18' E 009°41'0 0.0
2019-Oct-04 00:00N 54°18' E 009°41'0 0.0
2019-Oct-03 23:30N 54°18' E 009°41'0 0.0
2019-Oct-03 23:00N 54°18' E 009°41'0 0.0
2019-Oct-03 22:30N 54°18' E 009°41'0 0.0
2019-Oct-03 22:00N 54°18' E 009°41'0 0.0
2019-Oct-03 21:30N 54°18' E 009°41'0 0.0
2019-Oct-03 21:00N 54°18' E 009°41'0 0.0
2019-Oct-03 20:30N 54°18' E 009°41'0 0.0
2019-Oct-03 20:00N 54°18' E 009°41'0 0.0
2019-Oct-03 19:30N 54°18' E 009°41'0 0.0
2019-Oct-03 19:00N 54°18' E 009°41'0 0.0
2019-Oct-03 18:30N 54°18' E 009°41'0 0.0
2019-Oct-03 18:00N 54°18' E 009°41'0 0.0
2019-Oct-03 17:30N 54°18' E 009°41'0 0.0
2019-Oct-03 17:00N 54°18' E 009°41'0 0.0
2019-Oct-03 16:30N 54°18' E 009°41'0 0.0
2019-Oct-03 16:00N 54°18' E 009°41'0 0.0
2019-Oct-03 15:30N 54°18' E 009°41'0 0.0
2019-Oct-03 15:00N 54°18' E 009°41'0 0.0
2019-Oct-03 14:30N 54°18' E 009°41'0 0.0
2019-Oct-03 14:00N 54°18' E 009°41'0 0.0
2019-Oct-03 13:27N 54°18' E 009°41'0 0.0
2019-Oct-03 13:00N 54°18' E 009°41'0 0.0
2019-Oct-03 12:30N 54°18' E 009°41'0 0.0
2019-Oct-03 12:00N 54°18' E 009°41'0 0.0
2019-Oct-03 11:30N 54°18' E 009°41'0 0.0
2019-Oct-03 11:00N 54°18' E 009°41'0 0.0
2019-Oct-03 10:03N 54°18' E 009°41'0 0.0
2019-Oct-03 09:54N 54°18' E 009°41'0 0.0
2019-Oct-03 09:00N 54°18' E 009°41'0 0.0
2019-Oct-03 08:06N 54°18' E 009°41'0 0.0
2019-Oct-03 07:12N 54°18' E 009°41'0 0.0
2019-Oct-03 06:18N 54°18' E 009°41'0 0.0
2019-Oct-03 05:24N 54°18' E 009°41'0 0.0
2019-Oct-03 04:30N 54°18' E 009°41'0 0.0
2019-Oct-03 02:33N 54°18' E 009°41'  
Track history (hours):
 
Tides and Currents Weather Stations Pressure Air Temp Water Temp Dewpoint Dewpoint Depression Visibility Wind Speed Wind Dir Waves Ship Positions

Fridtjof Nansen (Germany)

Last reported at 2019-Oct-13 02:32 UTC. Time now 2019-Oct-17 17:44 UTC.
Position N 54°03' E 008°17'.

Length 48 m; draft 2.8 m.

Type: Sailing vessel. MMSI: 211364430.

Date/timePositionNaut miles runAvg speedWind from/ knotsBaromVisibWave heightAir tempDewpointWater temp
2019-Oct-13 02:32N 54°03' E 008°17'0 4.8
2019-Oct-13 02:30N 54°03' E 008°17'2 4.4
2019-Oct-13 02:00N 54°01' E 008°18'2 5.0
2019-Oct-13 01:31N 53°60' E 008°23'3 5.4
2019-Oct-13 01:00N 53°59' E 008°27'2 4.6
2019-Oct-13 00:30N 53°58' E 008°30'23 0.7
2019-Oct-11 15:56N 53°54' E 009°09'0 0.0
2019-Oct-11 15:30N 53°54' E 009°09'0 0.0
2019-Oct-11 14:59N 53°54' E 009°09'0 0.0
2019-Oct-11 14:30N 53°54' E 009°09'1 2.0
2019-Oct-11 14:00N 53°54' E 009°10'2 3.4
2019-Oct-11 13:30N 53°56' E 009°12'2 3.5
2019-Oct-11 13:00N 53°57' E 009°14'2 3.5
2019-Oct-11 12:30N 53°58' E 009°16'2 3.4
2019-Oct-11 12:00N 53°60' E 009°17'2 4.1
2019-Oct-11 11:30N 54°02' E 009°18'8 4.0
2019-Oct-11 09:35N 54°09' E 009°22'0 4.6
2019-Oct-11 09:28N 54°09' E 009°23'2 4.5
2019-Oct-11 09:00N 54°10' E 009°26'2 4.6
2019-Oct-11 08:30N 54°11' E 009°30'2 4.2
2019-Oct-11 08:00N 54°12' E 009°33'2 4.5
2019-Oct-11 07:30N 54°14' E 009°36'2 4.8
2019-Oct-11 07:00N 54°16' E 009°37'2 4.3
2019-Oct-11 06:30N 54°17' E 009°40'1 1.2
2019-Oct-11 06:00N 54°18' E 009°41'0 0.0
2019-Oct-11 05:30N 54°18' E 009°41'0 0.0
2019-Oct-11 05:00N 54°18' E 009°41'0 0.0
2019-Oct-11 04:30N 54°18' E 009°41'0 0.0
2019-Oct-11 04:00N 54°18' E 009°41'0 0.0
2019-Oct-11 03:30N 54°18' E 009°41'0 0.0
2019-Oct-11 03:00N 54°18' E 009°41'0 0.0
2019-Oct-11 02:27N 54°18' E 009°41'0 0.0
2019-Oct-11 02:00N 54°18' E 009°41'0 0.0
2019-Oct-11 01:29N 54°18' E 009°41'0 0.0
2019-Oct-11 00:59N 54°18' E 009°41'0 0.0
2019-Oct-11 00:29N 54°18' E 009°41'0 0.0
2019-Oct-10 23:59N 54°18' E 009°41'0 0.0
2019-Oct-10 23:29N 54°18' E 009°41'0 0.0
2019-Oct-10 22:59N 54°18' E 009°41'0 0.0
2019-Oct-10 22:29N 54°18' E 009°41'0 0.0
2019-Oct-10 21:59N 54°18' E 009°41'0 0.0
2019-Oct-10 21:23N 54°18' E 009°41'0 0.0
2019-Oct-10 20:59N 54°18' E 009°41'0 0.0
2019-Oct-10 20:29N 54°18' E 009°41'0 0.0
2019-Oct-10 19:59N 54°18' E 009°41'0 0.0
2019-Oct-10 19:29N 54°18' E 009°41'0 0.0
2019-Oct-10 18:59N 54°18' E 009°41'0 0.0
2019-Oct-10 18:29N 54°18' E 009°41'0 0.0
2019-Oct-10 17:59N 54°18' E 009°41'0 0.0
2019-Oct-10 17:29N 54°18' E 009°41'0 0.0
2019-Oct-10 16:50N 54°18' E 009°41'0 0.0
2019-Oct-10 16:29N 54°18' E 009°41'0 0.0
2019-Oct-10 15:59N 54°18' E 009°41'0 0.0
2019-Oct-10 15:26N 54°18' E 009°41'0 0.0
2019-Oct-10 14:56N 54°18' E 009°41'0 0.0
2019-Oct-10 14:29N 54°18' E 009°41'0 0.0
2019-Oct-10 13:59N 54°18' E 009°41'0 0.0
2019-Oct-10 13:26N 54°18' E 009°41'0 0.0
2019-Oct-10 12:59N 54°18' E 009°41'0 0.0
2019-Oct-10 12:29N 54°18' E 009°41'0 0.0
2019-Oct-10 11:59N 54°18' E 009°41'0 0.0
2019-Oct-10 11:29N 54°18' E 009°41'0 0.0
2019-Oct-10 10:56N 54°18' E 009°41'0 0.0
2019-Oct-10 10:26N 54°18' E 009°41'0 0.0
2019-Oct-10 09:59N 54°18' E 009°41'0 0.0
2019-Oct-10 09:29N 54°18' E 009°41'0 0.0
2019-Oct-10 08:59N 54°18' E 009°41'0 0.0
2019-Oct-10 08:26N 54°18' E 009°41'0 0.0
2019-Oct-10 07:59N 54°18' E 009°41'0 0.0
2019-Oct-10 07:29N 54°18' E 009°41'0 0.0
2019-Oct-10 06:59N 54°18' E 009°41'0 0.0
2019-Oct-10 06:23N 54°18' E 009°41'0 0.0
2019-Oct-10 05:59N 54°18' E 009°41'0 0.0
2019-Oct-10 05:29N 54°18' E 009°41'0 0.0
2019-Oct-10 04:59N 54°18' E 009°41'0 0.0
2019-Oct-10 04:29N 54°18' E 009°41'0 0.0
2019-Oct-10 03:59N 54°18' E 009°41'0 0.0
2019-Oct-10 03:29N 54°18' E 009°41'0 0.0
2019-Oct-10 02:59N 54°18' E 009°41'0 0.0
2019-Oct-10 02:29N 54°18' E 009°41'0 0.0
2019-Oct-10 01:59N 54°18' E 009°41'0 0.0
2019-Oct-10 01:29N 54°18' E 009°41'0 0.0
2019-Oct-10 00:59N 54°18' E 009°41'0 0.0
2019-Oct-10 00:29N 54°18' E 009°41'0 0.0
2019-Oct-09 23:59N 54°18' E 009°41'0 0.0
2019-Oct-09 23:26N 54°18' E 009°41'0 0.0
2019-Oct-09 22:59N 54°18' E 009°41'0 0.0
2019-Oct-09 22:29N 54°18' E 009°41'0 0.0
2019-Oct-09 21:59N 54°18' E 009°41'0 0.0
2019-Oct-09 21:29N 54°18' E 009°41'0 0.0
2019-Oct-09 20:59N 54°18' E 009°41'0 0.0
2019-Oct-09 20:29N 54°18' E 009°41'0 0.0
2019-Oct-09 19:53N 54°18' E 009°41'0 0.0
2019-Oct-09 19:29N 54°18' E 009°41'0 0.0
2019-Oct-09 18:59N 54°18' E 009°41'0 0.0
2019-Oct-09 18:29N 54°18' E 009°41'0 0.0
2019-Oct-09 17:59N 54°18' E 009°41'0 0.0
2019-Oct-09 17:29N 54°18' E 009°41'0 0.0
2019-Oct-09 16:59N 54°18' E 009°41'0 0.0
2019-Oct-09 16:28N 54°18' E 009°41'0 0.0
2019-Oct-09 15:58N 54°18' E 009°41'0 0.0
2019-Oct-09 15:28N 54°18' E 009°41'0 0.0
2019-Oct-09 14:58N 54°18' E 009°41'0 0.0
2019-Oct-09 14:28N 54°18' E 009°41'0 0.0
2019-Oct-09 13:58N 54°18' E 009°41'0 0.0
2019-Oct-09 13:28N 54°18' E 009°41'0 0.0
2019-Oct-09 12:58N 54°18' E 009°41'0 0.0
2019-Oct-09 12:28N 54°18' E 009°41'0 0.0
2019-Oct-09 11:58N 54°18' E 009°41'0 0.0
2019-Oct-09 11:28N 54°18' E 009°41'0 0.0
2019-Oct-09 10:58N 54°18' E 009°41'0 0.0
2019-Oct-09 10:28N 54°18' E 009°41'0 0.0
2019-Oct-09 09:55N 54°18' E 009°41'0 0.0
2019-Oct-09 09:28N 54°18' E 009°41'0 0.0
2019-Oct-09 08:58N 54°18' E 009°41'0 0.0
2019-Oct-09 08:28N 54°18' E 009°41'0 0.0
2019-Oct-09 07:58N 54°18' E 009°41'0 0.0
2019-Oct-09 07:28N 54°18' E 009°41'0 0.0
2019-Oct-09 06:58N 54°18' E 009°41'0 0.0
2019-Oct-09 06:28N 54°18' E 009°41'0 0.0
2019-Oct-09 05:58N 54°18' E 009°41'0 0.0
2019-Oct-09 05:28N 54°18' E 009°41'0 0.0
2019-Oct-09 04:58N 54°18' E 009°41'0 0.0
2019-Oct-09 04:28N 54°18' E 009°41'0 0.0
2019-Oct-09 03:58N 54°18' E 009°41'0 0.0
2019-Oct-09 03:25N 54°18' E 009°41'0 0.0
2019-Oct-09 02:58N 54°18' E 009°41'0 0.0
2019-Oct-09 02:28N 54°18' E 009°41'0 0.0
2019-Oct-09 01:58N 54°18' E 009°41'0 0.0
2019-Oct-09 01:28N 54°18' E 009°41'0 0.0
2019-Oct-09 00:58N 54°18' E 009°41'0 0.0
2019-Oct-09 00:28N 54°18' E 009°41'0 0.0
2019-Oct-08 23:58N 54°18' E 009°41'0 0.0
2019-Oct-08 23:28N 54°18' E 009°41'0 0.0
2019-Oct-08 22:55N 54°18' E 009°41'0 0.0
2019-Oct-08 22:28N 54°18' E 009°41'0 0.0
2019-Oct-08 21:58N 54°18' E 009°41'0 0.0
2019-Oct-08 21:28N 54°18' E 009°41'0 0.0
2019-Oct-08 20:58N 54°18' E 009°41'0 0.0
2019-Oct-08 20:28N 54°18' E 009°41'0 0.0
2019-Oct-08 19:58N 54°18' E 009°41'0 0.0
2019-Oct-08 19:28N 54°18' E 009°41'0 0.0
2019-Oct-08 18:58N 54°18' E 009°41'0 0.0
2019-Oct-08 18:28N 54°18' E 009°41'0 0.0
2019-Oct-08 17:58N 54°18' E 009°41'0 0.0
2019-Oct-08 17:28N 54°18' E 009°41'0 0.0
2019-Oct-08 16:58N 54°18' E 009°41'0 0.0
2019-Oct-08 16:28N 54°18' E 009°41'0 0.0
2019-Oct-08 15:58N 54°18' E 009°41'0 0.0
2019-Oct-08 15:28N 54°18' E 009°41'0 0.0
2019-Oct-08 14:58N 54°18' E 009°41'0 0.0
2019-Oct-08 14:28N 54°18' E 009°41'0 0.0
2019-Oct-08 13:58N 54°18' E 009°41'0 0.0
2019-Oct-08 13:28N 54°18' E 009°41'0 0.0
2019-Oct-08 12:58N 54°18' E 009°41'0 0.0
2019-Oct-08 12:28N 54°18' E 009°41'0 0.0
2019-Oct-08 11:55N 54°18' E 009°41'0 0.0
2019-Oct-08 11:25N 54°18' E 009°41'0 0.0
2019-Oct-08 10:07N 54°18' E 009°41'0 0.0
2019-Oct-08 09:58N 54°18' E 009°41'0 0.0
2019-Oct-08 09:28N 54°18' E 009°41'0 0.0
2019-Oct-08 09:01N 54°18' E 009°41'0 0.0
2019-Oct-08 08:28N 54°18' E 009°41'0 0.0
2019-Oct-08 08:01N 54°18' E 009°41'0 0.0
2019-Oct-08 07:31N 54°18' E 009°41'0 0.0
2019-Oct-08 07:00N 54°18' E 009°41'0 0.0
2019-Oct-08 06:30N 54°18' E 009°41'0 0.0
2019-Oct-08 06:00N 54°18' E 009°41'0 0.0
2019-Oct-08 05:30N 54°18' E 009°41'0 0.0
2019-Oct-08 05:00N 54°18' E 009°41'0 0.0
2019-Oct-08 04:30N 54°18' E 009°41'0 0.0
2019-Oct-08 04:00N 54°18' E 009°41'0 0.0
2019-Oct-08 03:30N 54°18' E 009°41'0 0.0
2019-Oct-08 03:00N 54°18' E 009°41'0 0.0
2019-Oct-08 02:30N 54°18' E 009°41'0 0.0
2019-Oct-08 02:00N 54°18' E 009°41'0 0.0
2019-Oct-08 01:30N 54°18' E 009°41'0 0.0
2019-Oct-08 01:00N 54°18' E 009°41'0 0.0
2019-Oct-08 00:30N 54°18' E 009°41'0 0.0
2019-Oct-07 23:57N 54°18' E 009°41'0 0.0
2019-Oct-07 23:30N 54°18' E 009°41'0 0.0
2019-Oct-07 23:00N 54°18' E 009°41'0 0.0
2019-Oct-07 22:30N 54°18' E 009°41'0 0.0
2019-Oct-07 21:57N 54°18' E 009°41'0 0.0
2019-Oct-07 21:30N 54°18' E 009°41'0 0.0
2019-Oct-07 21:00N 54°18' E 009°41'0 0.0
2019-Oct-07 20:30N 54°18' E 009°41'0 0.0
2019-Oct-07 19:57N 54°18' E 009°41'0 0.0
2019-Oct-07 19:30N 54°18' E 009°41'0 0.0
2019-Oct-07 18:57N 54°18' E 009°41'0 0.0
2019-Oct-07 18:30N 54°18' E 009°41'0 0.0
2019-Oct-07 18:00N 54°18' E 009°41'0 0.0
2019-Oct-07 17:27N 54°18' E 009°41'0 0.0
2019-Oct-07 16:57N 54°18' E 009°41'0 0.0
2019-Oct-07 16:30N 54°18' E 009°41'0 0.0
2019-Oct-07 15:57N 54°18' E 009°41'0 0.0
2019-Oct-07 15:27N 54°18' E 009°41'0 0.0
2019-Oct-07 14:54N 54°18' E 009°41'0 0.0
2019-Oct-07 14:30N 54°18' E 009°41'0 0.0
2019-Oct-07 13:57N 54°18' E 009°41'0 0.0
2019-Oct-07 13:30N 54°18' E 009°41'0 0.0
2019-Oct-07 13:00N 54°18' E 009°41'0 0.0
2019-Oct-07 12:27N 54°18' E 009°41'0 0.0
2019-Oct-07 11:51N 54°18' E 009°41'0 0.0
2019-Oct-07 11:27N 54°18' E 009°41'0 0.0
2019-Oct-07 10:27N 54°18' E 009°41'0 0.0
2019-Oct-07 09:18N 54°18' E 009°41'0 0.0
2019-Oct-07 08:33N 54°18' E 009°41'0 0.1
2019-Oct-07 08:30N 54°18' E 009°41'0 0.0
2019-Oct-07 07:57N 54°18' E 009°41'0 0.0
2019-Oct-07 07:30N 54°18' E 009°41'0 0.0
2019-Oct-07 07:00N 54°18' E 009°41'0 0.0
2019-Oct-07 06:30N 54°18' E 009°41'0 0.0
2019-Oct-07 06:00N 54°18' E 009°41'0 0.0
2019-Oct-07 05:30N 54°18' E 009°41'0 0.0
2019-Oct-07 05:00N 54°18' E 009°41'0 0.0
2019-Oct-07 04:30N 54°18' E 009°41'0 0.0
2019-Oct-07 04:00N 54°18' E 009°41'0 0.0
2019-Oct-07 03:30N 54°18' E 009°41'0 0.0
2019-Oct-07 03:00N 54°18' E 009°41'0 0.0
2019-Oct-07 02:00N 54°18' E 009°41'0 0.0
2019-Oct-07 01:30N 54°18' E 009°41'0 0.0
2019-Oct-07 01:00N 54°18' E 009°41'0 0.0
2019-Oct-07 00:30N 54°18' E 009°41'0 0.0
2019-Oct-07 00:00N 54°18' E 009°41'0 0.0
2019-Oct-06 23:30N 54°18' E 009°41'0 0.0
2019-Oct-06 23:00N 54°18' E 009°41'0 0.0
2019-Oct-06 22:30N 54°18' E 009°41'0 0.0
2019-Oct-06 21:59N 54°18' E 009°41'0 0.0
2019-Oct-06 21:29N 54°18' E 009°41'0 0.0
2019-Oct-06 20:59N 54°18' E 009°41'0 0.0
2019-Oct-06 20:29N 54°18' E 009°41'0 0.0
2019-Oct-06 19:56N 54°18' E 009°41'0 0.0
2019-Oct-06 19:29N 54°18' E 009°41'0 0.0
2019-Oct-06 18:59N 54°18' E 009°41'0 0.0
2019-Oct-06 18:29N 54°18' E 009°41'0 0.0
2019-Oct-06 17:59N 54°18' E 009°41'0 0.0
2019-Oct-06 17:29N 54°18' E 009°41'0 0.0
2019-Oct-06 16:59N 54°18' E 009°41'0 0.0
2019-Oct-06 16:26N 54°18' E 009°41'0 0.0
2019-Oct-06 15:44N 54°18' E 009°41'0 0.0
2019-Oct-06 15:20N 54°18' E 009°41'0 0.0
2019-Oct-06 14:59N 54°18' E 009°41'0 0.0
2019-Oct-06 14:23N 54°18' E 009°41'0 0.0
2019-Oct-06 13:44N 54°18' E 009°41'0 0.0
2019-Oct-06 13:20N 54°18' E 009°41'0 0.0
2019-Oct-06 12:56N 54°18' E 009°41'0 0.0
2019-Oct-06 12:20N 54°18' E 009°41'0 0.0
2019-Oct-06 11:50N 54°18' E 009°41'0 0.0
2019-Oct-06 11:29N 54°18' E 009°41'0 0.0
2019-Oct-06 10:53N 54°18' E 009°41'0 0.0
2019-Oct-06 10:29N 54°18' E 009°41'0 0.0
2019-Oct-06 09:53N 54°18' E 009°41'0 0.0
2019-Oct-06 09:26N 54°18' E 009°41'0 0.0
2019-Oct-06 08:56N 54°18' E 009°41'0 0.0
2019-Oct-06 08:26N 54°18' E 009°41'0 0.0
2019-Oct-06 07:50N 54°18' E 009°41'0 0.0
2019-Oct-06 07:29N 54°18' E 009°41'0 0.0
2019-Oct-06 06:56N 54°18' E 009°41'0 0.0
2019-Oct-06 06:26N 54°18' E 009°41'0 0.0
2019-Oct-06 05:59N 54°18' E 009°41'0 0.0
2019-Oct-06 05:29N 54°18' E 009°41'0 0.0
2019-Oct-06 04:59N 54°18' E 009°41'0 0.0
2019-Oct-06 04:29N 54°18' E 009°41'0 0.0
2019-Oct-06 03:59N 54°18' E 009°41'0 0.0
2019-Oct-06 03:29N 54°18' E 009°41'0 0.0
2019-Oct-06 02:59N 54°18' E 009°41'0 0.0
2019-Oct-06 02:29N 54°18' E 009°41'0 0.0
2019-Oct-06 01:56N 54°18' E 009°41'0 0.0
2019-Oct-06 01:29N 54°18' E 009°41'0 0.0
2019-Oct-06 00:59N 54°18' E 009°41'0 0.0
2019-Oct-06 00:29N 54°18' E 009°41'0 0.0
2019-Oct-05 23:59N 54°18' E 009°41'0 0.0
2019-Oct-05 23:26N 54°18' E 009°41'0 0.0
2019-Oct-05 22:59N 54°18' E 009°41'0 0.0
2019-Oct-05 22:29N 54°18' E 009°41'0 0.0
2019-Oct-05 21:59N 54°18' E 009°41'0 0.0
2019-Oct-05 21:29N 54°18' E 009°41'0 0.0
2019-Oct-05 20:56N 54°18' E 009°41'0 0.0
2019-Oct-05 20:29N 54°18' E 009°41'0 0.0
2019-Oct-05 19:59N 54°18' E 009°41'0 0.0
2019-Oct-05 19:29N 54°18' E 009°41'0 0.0
2019-Oct-05 18:59N 54°18' E 009°41'0 0.0
2019-Oct-05 18:29N 54°18' E 009°41'0 0.0
2019-Oct-05 17:59N 54°18' E 009°41'0 0.0
2019-Oct-05 17:29N 54°18' E 009°41'0 0.0
2019-Oct-05 16:56N 54°18' E 009°41'0 0.0
2019-Oct-05 16:29N 54°18' E 009°41'0 0.0
2019-Oct-05 15:59N 54°18' E 009°41'0 0.0
2019-Oct-05 15:29N 54°18' E 009°41'0 0.0
2019-Oct-05 14:59N 54°18' E 009°41'0 0.0
2019-Oct-05 14:29N 54°18' E 009°41'0 0.0
2019-Oct-05 13:56N 54°18' E 009°41'0 0.0
2019-Oct-05 13:29N 54°18' E 009°41'0 0.0
2019-Oct-05 12:58N 54°18' E 009°41'0 0.0
2019-Oct-05 12:25N 54°18' E 009°41'0 0.0
2019-Oct-05 11:55N 54°18' E 009°41'0 0.0
2019-Oct-05 11:28N 54°18' E 009°41'0 0.0
2019-Oct-05 10:58N 54°18' E 009°41'0 0.0
2019-Oct-05 10:28N 54°18' E 009°41'0 0.0
2019-Oct-05 09:58N 54°18' E 009°41'0 0.0
2019-Oct-05 09:19N 54°18' E 009°41'0 0.0
2019-Oct-05 08:55N 54°18' E 009°41'0 0.0
2019-Oct-05 08:28N 54°18' E 009°41'0 0.0
2019-Oct-05 07:58N 54°18' E 009°41'0 0.0
2019-Oct-05 07:28N 54°18' E 009°41'0 0.0
2019-Oct-05 06:58N 54°18' E 009°41'0 0.0
2019-Oct-05 06:28N 54°18' E 009°41'0 0.0
2019-Oct-05 05:58N 54°18' E 009°41'0 0.0
2019-Oct-05 05:28N 54°18' E 009°41'0 0.0
2019-Oct-05 04:58N 54°18' E 009°41'0 0.0
2019-Oct-05 04:28N 54°18' E 009°41'0 0.0
2019-Oct-05 03:58N 54°18' E 009°41'0 0.0
2019-Oct-05 03:28N 54°18' E 009°41'0 0.0
2019-Oct-05 02:58N 54°18' E 009°41'0 0.0
2019-Oct-05 02:28N 54°18' E 009°41'0 0.0
2019-Oct-05 01:58N 54°18' E 009°41'0 0.0
2019-Oct-05 01:25N 54°18' E 009°41'0 0.0
2019-Oct-05 00:58N 54°18' E 009°41'0 0.0
2019-Oct-05 00:28N 54°18' E 009°41'0 0.0
2019-Oct-04 23:58N 54°18' E 009°41'0 0.0
2019-Oct-04 23:28N 54°18' E 009°41'0 0.0
2019-Oct-04 22:58N 54°18' E 009°41'0 0.0
2019-Oct-04 22:28N 54°18' E 009°41'0 0.0
2019-Oct-04 21:58N 54°18' E 009°41'0 0.0
2019-Oct-04 21:28N 54°18' E 009°41'0 0.0
2019-Oct-04 20:58N 54°18' E 009°41'0 0.0
2019-Oct-04 20:28N 54°18' E 009°41'0 0.0
2019-Oct-04 19:55N 54°18' E 009°41'0 0.0
2019-Oct-04 19:28N 54°18' E 009°41'0 0.0
2019-Oct-04 18:58N 54°18' E 009°41'0 0.0
2019-Oct-04 18:28N 54°18' E 009°41'0 0.0
2019-Oct-04 17:55N 54°18' E 009°41'0 0.0
2019-Oct-04 17:28N 54°18' E 009°41'0 0.0
2019-Oct-04 16:55N 54°18' E 009°41'0 0.0
2019-Oct-04 16:28N 54°18' E 009°41'0 0.0
2019-Oct-04 15:55N 54°18' E 009°41'0 0.0
2019-Oct-04 15:25N 54°18' E 009°41'0 0.0
2019-Oct-04 14:55N 54°18' E 009°41'0 0.0
2019-Oct-04 14:28N 54°18' E 009°41'0 0.0
2019-Oct-04 13:58N 54°18' E 009°41'0 0.0
2019-Oct-04 13:25N 54°18' E 009°41'0 0.0
2019-Oct-04 12:49N 54°18' E 009°41'0 0.0
2019-Oct-04 11:01N 54°18' E 009°41'0 0.0
2019-Oct-04 10:58N 54°18' E 009°41'0 0.0
2019-Oct-04 10:28N 54°18' E 009°41'0 0.0
2019-Oct-04 09:55N 54°18' E 009°41'0 0.0
2019-Oct-04 09:28N 54°18' E 009°41'0 0.0
2019-Oct-04 08:55N 54°18' E 009°41'0 0.0
2019-Oct-04 08:28N 54°18' E 009°41'0 0.0
2019-Oct-04 07:58N 54°18' E 009°41'0 0.0
2019-Oct-04 07:28N 54°18' E 009°41'0 0.0
2019-Oct-04 06:58N 54°18' E 009°41'0 0.0
2019-Oct-04 06:28N 54°18' E 009°41'0 0.0
2019-Oct-04 05:58N 54°18' E 009°41'0 0.0
2019-Oct-04 05:28N 54°18' E 009°41'0 0.0
2019-Oct-04 05:01N 54°18' E 009°41'0 0.0
2019-Oct-04 04:31N 54°18' E 009°41'0 0.0
2019-Oct-04 04:00N 54°18' E 009°41'0 0.0
2019-Oct-04 03:30N 54°18' E 009°41'0 0.0
2019-Oct-04 03:00N 54°18' E 009°41'0 0.0
2019-Oct-04 02:30N 54°18' E 009°41'0 0.0
2019-Oct-04 02:00N 54°18' E 009°41'0 0.0
2019-Oct-04 01:30N 54°18' E 009°41'0 0.0
2019-Oct-04 01:00N 54°18' E 009°41'0 0.0
2019-Oct-04 00:30N 54°18' E 009°41'0 0.0
2019-Oct-04 00:00N 54°18' E 009°41'0 0.0
2019-Oct-03 23:30N 54°18' E 009°41'0 0.0
2019-Oct-03 23:00N 54°18' E 009°41'0 0.0
2019-Oct-03 22:30N 54°18' E 009°41'0 0.0
2019-Oct-03 22:00N 54°18' E 009°41'0 0.0
2019-Oct-03 21:30N 54°18' E 009°41'0 0.0
2019-Oct-03 21:00N 54°18' E 009°41'0 0.0
2019-Oct-03 20:30N 54°18' E 009°41'0 0.0
2019-Oct-03 20:00N 54°18' E 009°41'0 0.0
2019-Oct-03 19:30N 54°18' E 009°41'0 0.0
2019-Oct-03 19:00N 54°18' E 009°41'0 0.0
2019-Oct-03 18:30N 54°18' E 009°41'0 0.0
2019-Oct-03 18:00N 54°18' E 009°41'0 0.0
2019-Oct-03 17:30N 54°18' E 009°41'0 0.0
2019-Oct-03 17:00N 54°18' E 009°41'0 0.0
2019-Oct-03 16:30N 54°18' E 009°41'0 0.0
2019-Oct-03 16:00N 54°18' E 009°41'0 0.0
2019-Oct-03 15:30N 54°18' E 009°41'0 0.0
2019-Oct-03 15:00N 54°18' E 009°41'0 0.0
2019-Oct-03 14:30N 54°18' E 009°41'0 0.0
2019-Oct-03 14:00N 54°18' E 009°41'0 0.0
2019-Oct-03 13:27N 54°18' E 009°41'0 0.0
2019-Oct-03 13:00N 54°18' E 009°41'0 0.0
2019-Oct-03 12:30N 54°18' E 009°41'0 0.0
2019-Oct-03 12:00N 54°18' E 009°41'0 0.0
2019-Oct-03 11:30N 54°18' E 009°41'0 0.0
2019-Oct-03 11:00N 54°18' E 009°41'0 0.0
2019-Oct-03 10:03N 54°18' E 009°41'0 0.0
2019-Oct-03 09:54N 54°18' E 009°41'0 0.0
2019-Oct-03 09:00N 54°18' E 009°41'0 0.0
2019-Oct-03 08:06N 54°18' E 009°41'0 0.0
2019-Oct-03 07:12N 54°18' E 009°41'0 0.0
2019-Oct-03 06:18N 54°18' E 009°41'0 0.0
2019-Oct-03 05:24N 54°18' E 009°41'0 0.0
2019-Oct-03 04:30N 54°18' E 009°41'0 0.0
2019-Oct-03 02:33N 54°18' E 009°41'  

Dump ship's entire track history